Time;durP1;ratioP1;P1;durP2;ratioP2;P2;SDS_P1;SDS_P2;PMS_P1;PMS_P2;Temp;Humidity;BMP_temperature;BMP_pressure;BME280_temperature;BME280_humidity;BME280_pressure;Samples;Min_cycle;Max_cycle;Signal;HPM_P1;HPM_P2
2022/04/05 00:02:15;;;;;;;13.53;12.73;;;6.10;15.60;;;;;;5011456;28;20181;-72
2022/04/05 00:04:41;;;;;;;13.53;12.47;;;6.10;15.60;;;;;;5012551;28;20196;-72
2022/04/05 00:07:07;;;;;;;13.77;12.90;;;6.10;15.50;;;;;;5012486;28;20179;-72
2022/04/05 00:09:33;;;;;;;14.57;13.63;;;6.10;15.50;;;;;;5012595;28;20442;-72
2022/04/05 00:11:59;;;;;;;13.70;12.93;;;6.10;15.40;;;;;;5011507;28;20445;-72
2022/04/05 00:14:25;;;;;;;13.37;12.47;;;6.10;15.00;;;;;;5011166;28;20450;-71
2022/04/05 00:16:50;;;;;;;14.53;13.70;;;6.10;15.50;;;;;;5012202;28;20483;-72
2022/04/05 00:19:19;;;;;;;14.33;13.20;;;6.10;15.40;;;;;;5012439;28;20168;-72
2022/04/05 00:21:45;;;;;;;13.93;12.63;;;6.00;15.20;;;;;;5012980;28;20526;-71
2022/04/05 00:24:11;;;;;;;14.30;13.40;;;6.10;15.30;;;;;;5012689;28;20528;-70
2022/04/05 00:26:37;;;;;;;13.97;13.10;;;6.10;15.50;;;;;;5013810;28;20450;-71
2022/04/05 00:29:03;;;;;;;13.53;12.73;;;6.20;15.00;;;;;;5013904;28;20178;-70
2022/04/05 00:31:28;;;;;;;13.33;12.43;;;6.00;15.60;;;;;;5013721;28;20179;-70
2022/04/05 00:33:54;;;;;;;14.87;13.77;;;6.00;15.40;;;;;;5013492;28;20505;-70
2022/04/05 00:36:20;;;;;;;13.07;12.30;;;6.00;15.40;;;;;;5013669;28;20177;-71
2022/04/05 00:38:45;;;;;;;13.77;13.03;;;6.00;15.10;;;;;;5013366;28;20219;-71
2022/04/05 00:41:11;;;;;;;12.60;11.87;;;6.00;15.60;;;;;;5013249;28;20222;-72
2022/04/05 00:43:36;;;;;;;14.10;12.83;;;6.10;15.30;;;;;;5011736;28;20248;-70
2022/04/05 00:46:02;;;;;;;13.07;12.20;;;6.10;15.10;;;;;;5012351;28;20187;-70
2022/04/05 00:48:35;;;;;;;13.63;12.57;;;6.10;15.40;;;;;;5011978;28;20646;-70
2022/04/05 00:51:00;;;;;;;13.33;12.50;;;6.10;16.00;;;;;;5012388;28;20188;-70
2022/04/05 00:53:29;;;;;;;12.77;12.07;;;6.10;15.40;;;;;;5015997;28;20464;-71
2022/04/05 00:55:57;;;;;;;13.77;12.90;;;6.20;15.40;;;;;;5016185;28;20657;-70
2022/04/05 00:58:24;;;;;;;14.17;13.17;;;6.10;15.60;;;;;;5015792;28;20458;-70
2022/04/05 01:00:50;;;;;;;13.57;12.60;;;6.10;15.60;;;;;;5015903;28;20923;-71
2022/04/05 01:03:17;;;;;;;11.77;11.13;;;6.10;15.60;;;;;;5015843;28;20442;-70
2022/04/05 01:05:46;;;;;;;13.13;12.03;;;6.10;15.50;;;;;;5014584;28;20836;-71
2022/04/05 01:08:14;;;;;;;13.53;12.77;;;6.20;15.50;;;;;;5015479;28;20525;-71
2022/04/05 01:10:41;;;;;;;13.03;12.20;;;6.10;15.50;;;;;;5015660;28;20422;-71
2022/04/05 01:13:07;;;;;;;13.40;12.30;;;6.10;16.20;;;;;;5015646;28;20428;-71
2022/04/05 01:15:33;;;;;;;14.80;13.73;;;6.10;15.70;;;;;;5015609;28;20777;-70
2022/04/05 01:18:00;;;;;;;13.10;12.27;;;6.10;15.70;;;;;;5015610;28;20601;-70
2022/04/05 01:20:25;;;;;;;14.27;13.37;;;6.10;16.20;;;;;;5015599;28;20221;-70
2022/04/05 01:22:55;;;;;;;13.77;12.77;;;6.20;16.40;;;;;;5015426;28;20444;-72
2022/04/05 01:25:21;;;;;;;13.10;12.30;;;6.20;15.60;;;;;;5015550;28;20259;-72
2022/04/05 01:27:47;;;;;;;12.97;12.27;;;6.20;15.60;;;;;;5013916;28;20517;-70
2022/04/05 01:30:14;;;;;;;13.23;12.30;;;6.20;15.70;;;;;;5015292;28;20426;-71
2022/04/05 01:32:40;;;;;;;14.07;13.27;;;6.20;15.80;;;;;;5015440;28;20820;-71
2022/04/05 01:35:06;;;;;;;13.13;12.27;;;6.20;15.80;;;;;;5015254;28;20481;-71
2022/04/05 01:37:32;;;;;;;12.83;12.10;;;6.20;16.10;;;;;;5014719;28;20469;-71
2022/04/05 01:39:59;;;;;;;12.37;11.60;;;6.20;16.00;;;;;;5015172;28;20509;-71
2022/04/05 01:42:25;;;;;;;12.50;11.80;;;6.20;16.10;;;;;;5015240;28;20420;-71
2022/04/05 01:44:50;;;;;;;13.10;12.23;;;6.20;16.20;;;;;;5014907;28;20522;-71
2022/04/05 01:47:17;;;;;;;14.30;13.50;;;6.20;16.70;;;;;;5014597;28;20552;-71
2022/04/05 01:49:45;;;;;;;14.00;13.20;;;6.20;16.20;;;;;;5020319;28;20179;-71
2022/04/05 01:52:11;;;;;;;13.70;12.73;;;6.30;16.10;;;;;;5033462;28;21068;-71
2022/04/05 01:54:38;;;;;;;12.87;12.10;;;6.30;16.10;;;;;;5033429;28;20459;-71
2022/04/05 01:57:05;;;;;;;14.40;13.30;;;6.40;15.80;;;;;;5034703;28;20460;-71
2022/04/05 01:59:32;;;;;;;14.10;13.37;;;6.30;16.30;;;;;;5033772;28;20816;-71
2022/04/05 02:01:58;;;;;;;13.77;12.87;;;6.30;16.30;;;;;;5034393;28;20426;-71
2022/04/05 02:04:24;;;;;;;13.17;12.37;;;6.40;16.80;;;;;;5034553;28;20457;-71
2022/04/05 02:06:50;;;;;;;12.60;11.80;;;6.30;16.40;;;;;;5034497;28;20425;-71
2022/04/05 02:09:17;;;;;;;13.50;12.60;;;6.30;16.20;;;;;;5034731;28;20418;-72
2022/04/05 02:11:45;;;;;;;13.90;12.80;;;6.30;16.30;;;;;;5034877;28;20424;-71
2022/04/05 02:14:12;;;;;;;13.10;12.30;;;6.30;16.70;;;;;;5034570;28;20440;-71
2022/04/05 02:16:38;;;;;;;13.53;12.73;;;6.40;16.80;;;;;;5034425;28;20491;-72
2022/04/05 02:19:03;;;;;;;13.37;12.53;;;6.40;16.80;;;;;;5034388;28;20836;-72
2022/04/05 02:21:29;;;;;;;13.43;12.23;;;6.40;16.80;;;;;;5035916;28;20960;-71
2022/04/05 02:23:55;;;;;;;11.27;10.57;;;6.40;16.80;;;;;;5035497;28;20202;-71
2022/04/05 02:26:20;;;;;;;14.37;12.77;;;6.40;16.80;;;;;;5034887;28;20209;-71
2022/04/05 02:28:47;;;;;;;13.67;12.77;;;6.30;16.80;;;;;;5034560;28;20591;-71
2022/04/05 02:31:13;;;;;;;13.07;12.20;;;6.30;16.70;;;;;;5034939;28;20178;-71
2022/04/05 02:33:38;;;;;;;15.20;14.10;;;6.30;16.70;;;;;;5034664;28;20461;-72
2022/04/05 02:36:04;;;;;;;12.57;11.87;;;6.30;16.80;;;;;;5034373;28;20251;-71
2022/04/05 02:38:30;;;;;;;13.70;12.80;;;6.30;16.70;;;;;;5033829;28;20214;-71
2022/04/05 02:41:01;;;;;;;12.53;11.73;;;6.30;16.70;;;;;;5034065;28;20194;-71
2022/04/05 02:43:27;;;;;;;14.17;12.93;;;6.30;16.80;;;;;;5033802;28;20480;-71
2022/04/05 02:45:55;;;;;;;13.17;12.27;;;6.30;16.70;;;;;;5033709;28;20413;-71
2022/04/05 02:48:24;;;;;;;14.27;13.43;;;6.30;16.70;;;;;;5033447;28;20194;-71
2022/04/05 02:50:50;;;;;;;12.80;12.00;;;6.30;16.70;;;;;;5033787;28;20437;-71
2022/04/05 02:53:16;;;;;;;14.27;13.30;;;6.30;16.70;;;;;;5033630;28;20595;-71
2022/04/05 02:55:42;;;;;;;13.13;12.10;;;6.30;16.70;;;;;;5032274;28;20473;-71
2022/04/05 02:58:08;;;;;;;12.90;12.10;;;6.30;16.70;;;;;;5031950;28;20456;-71
2022/04/05 03:00:35;;;;;;;12.40;11.80;;;6.30;16.80;;;;;;5032324;28;20631;-71
2022/04/05 03:03:01;;;;;;;13.37;12.60;;;6.30;17.00;;;;;;5018057;28;20453;-71
2022/04/05 03:05:26;;;;;;;12.97;12.27;;;6.30;16.70;;;;;;5013518;28;20443;-71
2022/04/05 03:07:52;;;;;;;12.43;11.73;;;6.30;16.70;;;;;;5013216;28;20259;-71
2022/04/05 03:10:18;;;;;;;13.03;12.23;;;6.40;16.80;;;;;;5013646;28;20176;-71
2022/04/05 03:12:43;;;;;;;12.87;12.10;;;6.40;16.80;;;;;;5013509;28;20180;-71
2022/04/05 03:15:10;;;;;;;13.67;12.77;;;6.40;17.40;;;;;;5011282;28;20206;-71
2022/04/05 03:17:41;;;;;;;13.37;12.57;;;6.40;16.80;;;;;;5012938;28;20210;-71
2022/04/05 03:20:08;;;;;;;14.27;13.27;;;6.40;16.80;;;;;;5013228;28;20429;-71
2022/04/05 03:22:34;;;;;;;13.20;12.30;;;6.40;17.00;;;;;;5013209;28;20501;-71
2022/04/05 03:24:59;;;;;;;11.73;11.03;;;6.40;17.00;;;;;;5013085;28;20477;-71
2022/04/05 03:27:25;;;;;;;14.20;13.20;;;6.40;17.10;;;;;;5013029;28;20226;-70
2022/04/05 03:29:51;;;;;;;13.30;12.50;;;6.40;17.10;;;;;;5013100;28;20219;-71
2022/04/05 03:32:16;;;;;;;12.87;12.07;;;6.50;16.90;;;;;;5013149;28;20179;-71
2022/04/05 03:34:42;;;;;;;14.40;13.30;;;6.40;17.10;;;;;;5011753;28;20542;-70
2022/04/05 03:37:07;;;;;;;14.00;13.03;;;6.40;17.00;;;;;;5011402;28;20229;-71
2022/04/05 03:39:33;;;;;;;13.27;12.27;;;6.40;16.80;;;;;;5012961;28;20631;-71
2022/04/05 03:41:59;;;;;;;13.27;12.47;;;6.50;16.80;;;;;;5013008;28;20172;-71
2022/04/05 03:44:25;;;;;;;14.77;13.40;;;6.50;17.10;;;;;;5012926;28;20278;-71
2022/04/05 03:46:52;;;;;;;12.90;12.10;;;6.50;16.90;;;;;;5012801;28;20414;-72
2022/04/05 03:49:18;;;;;;;12.33;11.63;;;6.60;16.90;;;;;;5011740;28;20423;-71
2022/04/05 03:51:44;;;;;;;13.33;12.33;;;6.50;16.80;;;;;;5013025;28;20407;-71
2022/04/05 03:54:10;;;;;;;12.27;11.43;;;6.60;16.90;;;;;;5012624;28;20571;-71
2022/04/05 03:56:35;;;;;;;12.10;11.20;;;6.60;16.90;;;;;;5012555;28;20853;-70
2022/04/05 03:59:01;;;;;;;12.90;12.10;;;6.60;16.90;;;;;;5012738;28;20250;-71
2022/04/05 04:01:27;;;;;;;13.30;12.50;;;6.60;16.90;;;;;;5012441;28;20322;-73
2022/04/05 04:03:52;;;;;;;13.27;12.37;;;6.60;16.90;;;;;;5012514;28;20206;-71
2022/04/05 04:06:18;;;;;;;12.60;11.87;;;6.60;16.90;;;;;;5012494;28;20183;-69
2022/04/05 04:08:43;;;;;;;12.90;11.90;;;6.60;16.90;;;;;;5012196;28;20184;-70
2022/04/05 04:11:09;;;;;;;13.63;12.67;;;6.60;16.90;;;;;;5011430;28;20591;-71
2022/04/05 04:13:35;;;;;;;13.60;12.83;;;6.70;17.00;;;;;;5010920;28;20210;-69
2022/04/05 04:16:01;;;;;;;12.87;12.17;;;6.70;17.00;;;;;;5012334;28;20175;-70
2022/04/05 04:18:26;;;;;;;12.60;11.70;;;6.70;17.00;;;;;;5010856;28;20515;-70
2022/04/05 04:20:52;;;;;;;14.13;13.23;;;6.70;16.80;;;;;;5012225;28;20708;-70
2022/04/05 04:23:17;;;;;;;14.20;13.13;;;6.60;16.60;;;;;;5012085;28;20227;-70
2022/04/05 04:25:43;;;;;;;12.97;11.97;;;6.60;16.70;;;;;;5012220;28;20172;-71
2022/04/05 04:28:09;;;;;;;13.00;12.00;;;6.70;16.60;;;;;;5011815;28;20184;-69
2022/04/05 04:30:37;;;;;;;12.67;11.87;;;6.70;16.10;;;;;;5012237;28;20176;-69
2022/04/05 04:33:03;;;;;;;12.47;11.77;;;6.70;15.80;;;;;;5012092;28;20439;-69
2022/04/05 04:35:29;;;;;;;12.70;11.83;;;6.70;16.20;;;;;;5012166;28;20414;-71
2022/04/05 04:37:54;;;;;;;13.63;12.87;;;6.60;16.40;;;;;;5012231;28;20459;-69
2022/04/05 04:40:21;;;;;;;14.40;13.30;;;6.70;16.00;;;;;;5012164;28;20233;-70
2022/04/05 04:42:46;;;;;;;13.10;12.30;;;6.70;15.50;;;;;;5012088;28;20458;-69
2022/04/05 04:45:12;;;;;;;13.13;12.30;;;6.70;15.50;;;;;;5010659;28;20466;-69
2022/04/05 04:47:39;;;;;;;13.03;12.13;;;6.70;15.70;;;;;;5011789;28;20176;-70
2022/04/05 04:50:06;;;;;;;13.10;12.33;;;6.70;15.60;;;;;;5019065;28;20426;-70
2022/04/05 04:52:32;;;;;;;13.47;12.67;;;6.70;15.80;;;;;;5031586;28;20412;-70
2022/04/05 04:54:57;;;;;;;12.90;12.20;;;6.80;16.10;;;;;;5031899;28;20521;-70
2022/04/05 04:57:25;;;;;;;12.93;12.10;;;6.80;15.80;;;;;;5029914;28;20218;-69
2022/04/05 04:59:50;;;;;;;11.70;11.03;;;6.80;16.10;;;;;;5031582;28;20254;-70
2022/04/05 05:02:16;;;;;;;13.73;12.60;;;6.80;17.00;;;;;;5030545;28;20442;-73
2022/04/05 05:04:42;;;;;;;12.10;11.47;;;6.80;17.00;;;;;;5030833;28;20282;-69
2022/04/05 05:07:07;;;;;;;13.30;12.50;;;6.90;17.70;;;;;;5031378;28;20176;-69
2022/04/05 05:09:33;;;;;;;13.70;12.90;;;6.90;17.10;;;;;;5031608;28;20205;-70
2022/04/05 05:12:00;;;;;;;12.80;12.10;;;6.80;16.80;;;;;;5030573;28;20187;-70
2022/04/05 05:14:27;;;;;;;13.43;12.53;;;6.80;17.30;;;;;;5030339;28;20988;-70
2022/04/05 05:16:53;;;;;;;12.80;12.10;;;6.70;17.00;;;;;;5031472;28;20410;-71
2022/04/05 05:19:19;;;;;;;14.17;13.30;;;6.70;17.00;;;;;;5031810;28;20452;-70
2022/04/05 05:21:45;;;;;;;12.43;11.60;;;6.80;17.00;;;;;;5031685;28;20421;-72
2022/04/05 05:24:11;;;;;;;13.10;12.20;;;6.80;17.50;;;;;;5030675;28;20461;-71
2022/04/05 05:26:36;;;;;;;12.13;11.50;;;6.80;17.00;;;;;;5031753;28;20187;-70
2022/04/05 05:29:02;;;;;;;13.77;12.87;;;6.80;17.00;;;;;;5031944;28;20478;-71
2022/04/05 05:31:28;;;;;;;12.03;11.30;;;6.80;17.10;;;;;;5030774;28;20233;-70
2022/04/05 05:33:53;;;;;;;12.70;11.90;;;6.90;17.10;;;;;;5032259;28;20188;-71
2022/04/05 05:36:19;;;;;;;11.33;10.73;;;6.90;17.10;;;;;;5031828;28;20230;-70
2022/04/05 05:38:44;;;;;;;12.73;11.97;;;6.90;17.10;;;;;;5035007;28;20207;-69
2022/04/05 05:41:10;;;;;;;13.50;12.70;;;7.00;17.20;;;;;;5036038;28;20645;-69
2022/04/05 05:43:37;;;;;;;12.87;11.97;;;7.00;17.20;;;;;;5036265;28;20597;-70
2022/04/05 05:46:03;;;;;;;13.17;12.33;;;7.00;16.30;;;;;;5036253;28;20168;-70
2022/04/05 05:48:30;;;;;;;12.63;11.93;;;7.10;16.90;;;;;;5035799;28;20468;-70
2022/04/05 05:50:56;;;;;;;13.00;11.90;;;7.10;16.70;;;;;;5036650;28;20464;-71
2022/04/05 05:53:22;;;;;;;14.27;13.20;;;7.20;16.90;;;;;;5035949;28;20958;-73
2022/04/05 05:55:48;;;;;;;13.87;13.07;;;7.30;16.00;;;;;;5036342;28;20182;-71
2022/04/05 05:58:14;;;;;;;12.17;11.50;;;7.30;15.90;;;;;;5035754;28;20215;-70
2022/04/05 06:00:39;;;;;;;13.10;12.40;;;7.40;16.00;;;;;;5036370;28;20410;-70
2022/04/05 06:03:10;;;;;;;13.03;12.20;;;7.40;16.00;;;;;;5035541;28;20934;-70
2022/04/05 06:05:36;;;;;;;13.33;12.27;;;7.50;15.60;;;;;;5035240;28;20593;-70
2022/04/05 06:08:02;;;;;;;12.77;11.97;;;7.60;16.00;;;;;;5035306;28;20958;-69
2022/04/05 06:10:28;;;;;;;12.60;11.90;;;7.60;15.90;;;;;;5035585;28;20436;-71
2022/04/05 06:12:57;;;;;;;12.90;12.10;;;7.60;16.00;;;;;;5033806;28;20410;-69
2022/04/05 06:15:25;;;;;;;13.23;12.43;;;7.60;16.20;;;;;;5035410;28;20452;-71
2022/04/05 06:17:51;;;;;;;13.03;12.30;;;7.70;16.40;;;;;;5035540;28;20450;-73
2022/04/05 06:20:20;;;;;;;12.20;11.37;;;7.70;16.00;;;;;;5045177;28;20445;-73
2022/04/05 06:22:51;;;;;;;13.60;12.70;;;7.70;16.30;;;;;;5035888;28;20429;-73
2022/04/05 06:25:23;;;;;;;10.90;10.30;;;7.70;16.40;;;;;;5034540;28;20499;-73
2022/04/05 06:27:48;;;;;;;11.43;10.70;;;7.70;16.70;;;;;;5033621;28;20410;-73
2022/04/05 06:30:16;;;;;;;11.70;10.90;;;7.80;16.40;;;;;;5034923;28;20922;-70
2022/04/05 06:32:42;;;;;;;12.27;11.50;;;7.80;16.20;;;;;;5034085;28;20181;-71
2022/04/05 06:35:10;;;;;;;14.30;13.07;;;7.90;16.10;;;;;;5034394;28;20438;-71
2022/04/05 06:37:37;;;;;;;12.07;11.47;;;8.00;15.90;;;;;;5033692;28;21037;-71
2022/04/05 06:40:07;;;;;;;12.43;11.83;;;7.90;15.80;;;;;;5034486;28;20979;-72
2022/04/05 06:42:33;;;;;;;12.93;12.30;;;8.00;16.00;;;;;;5034795;28;20497;-70
2022/04/05 06:44:58;;;;;;;12.40;11.67;;;8.10;16.20;;;;;;5033047;28;20862;-71
2022/04/05 06:47:24;;;;;;;13.27;12.20;;;8.20;16.70;;;;;;5033965;28;20426;-70
2022/04/05 06:49:50;;;;;;;10.87;10.30;;;8.30;15.80;;;;;;5027938;28;20188;-69
2022/04/05 06:52:16;;;;;;;12.63;11.93;;;8.40;15.80;;;;;;5013133;28;20192;-70
2022/04/05 06:54:42;;;;;;;13.40;12.70;;;8.50;15.40;;;;;;5014458;28;20444;-70
2022/04/05 06:57:09;;;;;;;11.80;11.20;;;8.60;15.40;;;;;;5025046;28;20334;-70
2022/04/05 06:59:34;;;;;;;12.63;12.00;;;8.70;15.20;;;;;;5033760;28;20423;-70
2022/04/05 07:02:00;;;;;;;13.10;12.30;;;8.70;15.00;;;;;;5032478;28;20418;-69
2022/04/05 07:04:26;;;;;;;10.97;10.37;;;8.60;14.80;;;;;;5033903;28;20201;-70
2022/04/05 07:06:51;;;;;;;11.53;10.93;;;8.70;14.40;;;;;;5033471;28;20172;-70
2022/04/05 07:09:17;;;;;;;12.33;11.63;;;8.70;14.80;;;;;;5033715;28;20251;-70
2022/04/05 07:11:43;;;;;;;12.67;11.90;;;8.80;14.90;;;;;;5032393;28;20203;-70
2022/04/05 07:14:08;;;;;;;12.80;12.03;;;8.80;14.60;;;;;;5033556;28;20196;-70
2022/04/05 07:16:34;;;;;;;13.03;12.00;;;8.80;14.90;;;;;;5032975;28;20530;-71
2022/04/05 07:18:59;;;;;;;13.37;12.37;;;9.00;14.50;;;;;;5030031;28;20208;-72
2022/04/05 07:21:26;;;;;;;12.53;11.73;;;9.00;14.50;;;;;;5029176;28;20200;-69
2022/04/05 07:23:51;;;;;;;12.53;11.93;;;9.10;14.70;;;;;;5029401;28;20617;-73
2022/04/05 07:26:21;;;;;;;11.60;11.00;;;9.10;14.20;;;;;;5028717;28;20432;-73
2022/04/05 07:28:46;;;;;;;12.37;11.53;;;9.10;14.20;;;;;;5027087;28;20243;-71
2022/04/05 07:31:12;;;;;;;12.30;11.60;;;9.30;14.40;;;;;;5029497;28;20433;-73
2022/04/05 07:33:38;;;;;;;13.10;12.20;;;9.20;14.30;;;;;;5028870;28;20441;-72
2022/04/05 07:36:03;;;;;;;11.50;11.00;;;9.30;14.40;;;;;;5026769;28;20207;-72
2022/04/05 07:38:29;;;;;;;12.37;11.73;;;9.30;13.70;;;;;;5029296;28;20225;-72
2022/04/05 07:40:54;;;;;;;12.40;11.80;;;9.40;14.00;;;;;;5028555;28;20268;-72
2022/04/05 07:43:23;;;;;;;13.77;12.90;;;9.50;14.10;;;;;;5028356;28;20226;-73
2022/04/05 07:45:50;;;;;;;12.33;11.73;;;9.30;14.40;;;;;;5027535;28;20191;-73
2022/04/05 07:48:17;;;;;;;12.30;11.63;;;9.30;14.40;;;;;;5028279;28;20501;-73
2022/04/05 07:50:43;;;;;;;11.73;11.23;;;9.50;13.80;;;;;;5028105;28;20429;-72
2022/04/05 07:53:08;;;;;;;11.90;11.07;;;9.50;13.70;;;;;;5024675;28;20446;-73
2022/04/05 07:55:34;;;;;;;13.60;12.80;;;9.40;13.80;;;;;;5031475;28;20199;-72
2022/04/05 07:58:00;;;;;;;12.07;11.43;;;9.40;14.00;;;;;;5031837;28;20210;-72
2022/04/05 08:00:27;;;;;;;12.83;12.13;;;9.50;14.10;;;;;;5031019;28;20177;-72
2022/04/05 08:02:52;;;;;;;13.30;12.30;;;9.50;14.50;;;;;;5032430;28;20167;-71
2022/04/05 08:05:18;;;;;;;12.70;12.00;;;9.60;14.00;;;;;;5033142;28;20535;-77
2022/04/05 08:07:46;;;;;;;11.23;10.63;;;9.60;13.70;;;;;;5030693;28;20187;-71
2022/04/05 08:10:13;;;;;;;12.77;12.17;;;9.60;14.50;;;;;;5032438;28;20174;-73
2022/04/05 08:12:43;;;;;;;14.57;13.50;;;9.60;14.00;;;;;;5031717;28;21064;-71
2022/04/05 08:15:13;;;;;;;11.60;11.10;;;9.70;14.40;;;;;;5032716;28;20540;-71
2022/04/05 08:17:38;;;;;;;13.50;12.80;;;9.80;14.20;;;;;;5037617;28;20467;-72
2022/04/05 08:20:05;;;;;;;13.33;12.03;;;9.80;14.10;;;;;;5042131;28;20529;-72
2022/04/05 08:22:31;;;;;;;14.10;13.03;;;10.00;13.40;;;;;;5034440;28;20421;-72
2022/04/05 08:24:56;;;;;;;10.83;10.40;;;9.90;13.90;;;;;;5033839;28;20498;-72
2022/04/05 08:27:22;;;;;;;12.27;11.57;;;10.00;13.20;;;;;;5031203;28;20235;-72
2022/04/05 08:29:47;;;;;;;13.93;13.03;;;10.10;12.70;;;;;;5032537;28;20670;-71
2022/04/05 08:32:13;;;;;;;11.83;11.27;;;10.00;13.00;;;;;;5029931;28;20201;-71
2022/04/05 08:34:41;;;;;;;13.47;12.73;;;10.20;13.10;;;;;;5032038;28;20256;-71
2022/04/05 08:37:10;;;;;;;11.70;11.10;;;10.20;13.10;;;;;;5032120;28;20221;-72
2022/04/05 08:39:36;;;;;;;14.10;12.80;;;10.10;13.10;;;;;;5031082;28;20919;-72
2022/04/05 08:42:04;;;;;;;12.20;11.57;;;10.20;13.20;;;;;;5032873;28;20418;-72
2022/04/05 08:44:30;;;;;;;13.03;11.80;;;10.20;13.20;;;;;;5033381;28;20437;-71
2022/04/05 08:46:56;;;;;;;12.27;11.67;;;10.20;13.20;;;;;;5031877;28;20440;-71
2022/04/05 08:49:23;;;;;;;12.67;11.87;;;10.20;13.10;;;;;;5033076;28;20202;-71
2022/04/05 08:51:49;;;;;;;13.43;12.77;;;10.20;13.80;;;;;;5033020;28;20421;-71
2022/04/05 08:54:15;;;;;;;12.80;12.10;;;10.20;13.50;;;;;;5032617;28;20463;-71
2022/04/05 08:56:41;;;;;;;12.80;11.90;;;10.20;14.00;;;;;;5031929;28;20425;-70
2022/04/05 08:59:06;;;;;;;12.10;11.43;;;10.10;14.10;;;;;;5028792;28;20238;-75
2022/04/05 09:01:34;;;;;;;11.90;11.37;;;10.00;14.10;;;;;;5026860;28;20481;-72
2022/04/05 09:04:00;;;;;;;12.50;11.80;;;10.10;14.10;;;;;;5021005;28;20257;-72
2022/04/05 09:06:27;;;;;;;12.60;11.97;;;10.00;14.90;;;;;;5010811;28;20436;-72
2022/04/05 09:08:58;;;;;;;12.20;11.60;;;9.90;16.00;;;;;;5028599;28;20933;-72
2022/04/05 09:11:27;;;;;;;11.53;10.80;;;10.00;15.90;;;;;;5012994;28;20475;-70
2022/04/05 09:14:01;;;;;;;12.87;11.67;;;9.90;16.60;;;;;;5031477;28;20441;-71
2022/04/05 09:16:32;;;;;;;12.00;11.30;;;10.00;16.20;;;;;;5029669;28;20429;-72
2022/04/05 09:18:59;;;;;;;13.17;12.47;;;10.10;16.30;;;;;;5012119;28;20488;-72
2022/04/05 09:21:25;;;;;;;12.27;11.63;;;10.20;16.60;;;;;;5025420;28;20441;-72
2022/04/05 09:23:52;;;;;;;12.50;11.80;;;10.20;16.70;;;;;;5031235;28;20464;-70
2022/04/05 09:26:19;;;;;;;12.40;11.70;;;10.40;16.70;;;;;;5030113;28;20180;-70
2022/04/05 09:28:48;;;;;;;12.33;11.63;;;10.50;16.80;;;;;;5032517;28;20446;-70
2022/04/05 09:31:17;;;;;;;12.87;11.93;;;10.50;16.40;;;;;;5032284;28;20438;-70
2022/04/05 09:34:13;;;;;;;11.80;11.10;;;10.50;16.60;;;;;;5023904;28;20534;-70
2022/04/05 09:36:43;;;;;;;12.00;11.30;;;10.50;16.80;;;;;;5032877;28;20885;-76
2022/04/05 09:39:16;;;;;;;13.20;12.40;;;10.80;17.10;;;;;;5031628;28;20531;-70
2022/04/05 09:41:42;;;;;;;12.33;11.53;;;11.10;16.60;;;;;;5030541;28;20441;-70
2022/04/05 09:44:07;;;;;;;13.53;12.53;;;11.40;16.20;;;;;;5031677;28;20484;-70
2022/04/05 09:46:35;;;;;;;12.07;11.47;;;11.50;15.10;;;;;;5032458;28;20429;-71
2022/04/05 09:49:11;;;;;;;12.93;12.17;;;11.60;15.20;;;;;;5032430;28;20183;-71
2022/04/05 09:51:41;;;;;;;12.90;12.07;;;11.60;15.70;;;;;;5019087;28;20413;-71
2022/04/05 09:54:08;;;;;;;12.00;11.40;;;11.60;15.20;;;;;;5031221;28;20431;-72
2022/04/05 09:56:38;;;;;;;12.23;11.63;;;11.60;15.20;;;;;;5029726;28;20422;-72
2022/04/05 09:59:24;;;;;;;13.03;11.93;;;11.60;15.20;;;;;;5030980;28;20884;-72
2022/04/05 10:01:52;;;;;;;13.50;12.50;;;11.60;15.20;;;;;;5032573;28;20442;-72
2022/04/05 10:04:18;;;;;;;20.10;13.67;;;11.50;15.10;;;;;;5032552;28;20503;-72
2022/04/05 10:06:49;;;;;;;13.33;12.63;;;11.50;14.80;;;;;;5031408;28;20456;-74
2022/04/05 10:09:20;;;;;;;13.23;12.57;;;11.40;14.70;;;;;;5031022;28;20430;-72
2022/04/05 10:11:46;;;;;;;13.20;12.47;;;11.40;15.00;;;;;;5030645;28;20800;-72
2022/04/05 10:14:14;;;;;;;12.60;11.80;;;11.20;14.90;;;;;;5030042;28;20439;-72
2022/04/05 10:16:44;;;;;;;13.00;12.30;;;11.10;15.30;;;;;;5034061;28;20910;-72
2022/04/05 10:19:11;;;;;;;13.70;12.90;;;11.10;15.10;;;;;;5035941;28;20483;-72
2022/04/05 10:21:39;;;;;;;14.07;13.07;;;11.00;14.80;;;;;;5044955;28;20464;-73
2022/04/05 10:24:06;;;;;;;11.70;10.83;;;11.00;14.90;;;;;;5040217;28;20453;-71
2022/04/05 10:26:34;;;;;;;12.87;12.10;;;11.00;14.80;;;;;;5038020;28;20581;-72
2022/04/05 10:29:03;;;;;;;11.70;11.17;;;10.90;14.70;;;;;;5036525;28;20421;-72
2022/04/05 10:31:55;;;;;;;14.70;12.97;;;11.00;15.40;;;;;;5034672;28;20529;-71
2022/04/05 10:34:31;;;;;;;11.87;11.23;;;11.10;14.80;;;;;;5035692;28;20541;-72
2022/04/05 10:37:31;;;;;;;12.87;12.07;;;11.30;15.00;;;;;;5035600;28;20422;-71
2022/04/05 10:39:56;;;;;;;13.37;12.57;;;11.40;15.00;;;;;;5034758;28;20443;-73
2022/04/05 10:42:25;;;;;;;11.93;11.13;;;11.50;14.70;;;;;;5035047;28;20417;-72
2022/04/05 10:45:07;;;;;;;11.60;11.00;;;11.40;15.00;;;;;;5033304;28;20201;-71
2022/04/05 10:47:33;;;;;;;11.83;11.23;;;11.40;15.00;;;;;;5034496;28;20965;-71
2022/04/05 10:50:15;;;;;;;11.73;11.13;;;11.40;15.00;;;;;;5035023;28;20497;-72
2022/04/05 10:52:46;;;;;;;11.50;10.80;;;11.50;15.10;;;;;;5034253;28;20187;-71
2022/04/05 10:55:12;;;;;;;13.20;11.80;;;11.50;14.70;;;;;;5033353;28;20452;-72
2022/04/05 10:57:39;;;;;;;11.60;11.00;;;11.40;15.00;;;;;;5032983;28;20457;-71
2022/04/05 11:00:10;;;;;;;11.40;10.80;;;11.50;15.10;;;;;;5034437;28;20848;-72
2022/04/05 11:02:51;;;;;;;13.13;12.47;;;11.50;15.10;;;;;;5034238;28;20794;-71
2022/04/05 11:05:18;;;;;;;13.30;12.60;;;11.60;15.00;;;;;;5034470;28;20516;-71
2022/04/05 11:08:00;;;;;;;12.83;12.13;;;11.60;15.70;;;;;;5034093;28;20414;-71
2022/04/05 11:10:30;;;;;;;13.20;12.50;;;11.50;15.00;;;;;;5033894;28;20930;-72
2022/04/05 11:13:14;;;;;;;11.83;11.30;;;11.60;15.10;;;;;;5032350;28;20432;-71
2022/04/05 11:15:59;;;;;;;12.87;12.03;;;11.70;15.20;;;;;;5033972;28;20505;-72
2022/04/05 11:18:33;;;;;;;11.97;11.47;;;11.70;14.40;;;;;;5033253;28;20552;-71
2022/04/05 11:20:59;;;;;;;13.57;12.67;;;11.60;15.20;;;;;;5032465;28;20494;-72
2022/04/05 11:23:45;;;;;;;12.43;11.83;;;11.70;15.20;;;;;;5053924;22;20467;-72
2022/04/05 11:26:27;;;;;;;13.27;12.40;;;11.60;15.20;;;;;;5013796;28;20825;-71
2022/04/05 11:28:54;;;;;;;12.93;12.13;;;11.50;15.10;;;;;;5016594;28;20437;-73
2022/04/05 11:31:40;;;;;;;11.67;10.97;;;11.40;15.10;;;;;;5017867;28;20747;-72
2022/04/05 11:34:34;;;;;;;13.37;12.47;;;11.30;15.80;;;;;;5015194;28;20477;-72
2022/04/05 11:37:00;;;;;;;11.50;10.80;;;11.20;16.20;;;;;;5011599;28;20646;-72
2022/04/05 11:39:26;;;;;;;12.00;11.30;;;11.20;16.30;;;;;;5013471;28;20415;-72
2022/04/05 11:41:59;;;;;;;12.30;11.70;;;11.10;16.50;;;;;;5011591;28;20433;-72
2022/04/05 11:44:25;;;;;;;12.60;11.90;;;11.00;16.90;;;;;;5012782;28;20187;-73
2022/04/05 11:46:55;;;;;;;10.90;10.30;;;10.90;17.20;;;;;;5013327;28;20978;-72
2022/04/05 11:49:21;;;;;;;11.83;10.90;;;10.90;18.10;;;;;;5012821;28;20895;-72
2022/04/05 11:51:48;;;;;;;10.10;9.47;;;10.80;17.40;;;;;;5012896;28;20412;-72
2022/04/05 11:54:24;;;;;;;11.87;11.17;;;10.90;17.60;;;;;;5012825;28;20431;-72
2022/04/05 11:56:51;;;;;;;10.90;9.77;;;10.90;17.60;;;;;;5012597;28;20413;-72
2022/04/05 11:59:18;;;;;;;11.50;10.80;;;11.00;17.50;;;;;;5012806;28;20925;-72
2022/04/05 12:01:49;;;;;;;11.73;11.03;;;11.10;17.70;;;;;;5012864;28;21036;-72
2022/04/05 12:04:22;;;;;;;10.87;10.27;;;11.10;17.90;;;;;;5011415;28;20461;-72
2022/04/05 12:06:52;;;;;;;10.57;10.07;;;11.00;18.10;;;;;;5012418;28;20427;-72
2022/04/05 12:09:19;;;;;;;11.43;10.63;;;11.00;18.10;;;;;;5012585;28;20465;-71
2022/04/05 12:11:47;;;;;;;10.60;9.90;;;10.90;17.90;;;;;;5012627;28;20425;-72
2022/04/05 12:14:14;;;;;;;12.03;11.13;;;10.90;19.00;;;;;;5012434;28;20442;-71
2022/04/05 12:16:45;;;;;;;10.27;9.67;;;11.00;18.80;;;;;;5012462;28;20886;-72
2022/04/05 12:19:11;;;;;;;11.10;10.57;;;11.10;18.60;;;;;;5011301;28;21076;-68
2022/04/05 12:21:36;;;;;;;11.93;11.33;;;11.20;18.20;;;;;;5012286;28;20423;-69
2022/04/05 12:24:02;;;;;;;11.33;10.83;;;11.30;18.00;;;;;;5009562;28;20212;-70
2022/04/05 12:26:32;;;;;;;10.50;10.00;;;11.30;17.70;;;;;;5010154;28;20338;-70
2022/04/05 12:28:59;;;;;;;11.87;10.87;;;11.50;17.90;;;;;;5008659;28;20507;-70
2022/04/05 12:31:28;;;;;;;12.20;11.57;;;11.60;18.10;;;;;;5007404;28;20423;-69
2022/04/05 12:34:02;;;;;;;11.30;10.73;;;11.80;18.10;;;;;;5008151;28;20493;-70
2022/04/05 12:36:39;;;;;;;11.63;11.03;;;12.00;17.60;;;;;;5008007;28;20481;-71